Time;durP1;ratioP1;P1;durP2;ratioP2;P2;SDS_P1;SDS_P2;PMS_P1;PMS_P2;Temp;Humidity;BMP_temperature;BMP_pressure;BME280_temperature;BME280_humidity;BME280_pressure;Samples;Min_cycle;Max_cycle;Signal;HPM_P1;HPM_P2
2023/07/22 00:03:06;;;;;;;14.30;12.90;;;;;;;17.00;84.56;98253.16;226080;1276;24322;-72
2023/07/22 00:09:10;;;;;;;12.40;11.20;;;;;;;17.00;84.21;98251.56;226598;1276;22545;-72
2023/07/22 00:15:04;;;;;;;;;;;;;;;17.02;84.45;98260.52;226563;1276;22550;-71
2023/07/22 00:20:31;;;;;;;;;;;;;;;;;;;;;
2023/07/22 00:27:09;;;;;;;;;;;;;;;;;;;;;
2023/07/22 00:40:26;;;;;;;;;;;;;;;;;;;;;
2023/07/22 00:46:01;;;;;;;12.60;11.30;;;;;;;16.69;84.49;98261.54;226577;1276;22537;-72
2023/07/22 00:52:10;;;;;;;13.70;12.20;;;;;;;16.60;84.80;98266.20;226673;1276;22537;-71
2023/07/22 00:59:00;;;;;;;14.50;12.70;;;;;;;16.49;84.82;98272.78;226407;1276;22553;-71
2023/07/22 01:04:30;;;;;;;13.90;12.50;;;;;;;16.40;84.70;98268.23;226516;1276;22542;-72
2023/07/22 01:10:39;;;;;;;;;;;;;;;;;;;;;
2023/07/22 01:16:55;;;;;;;11.30;10.00;;;;;;;16.18;84.68;98239.61;226265;1276;24298;-72
2023/07/22 01:23:04;;;;;;;12.40;10.10;;;;;;;16.08;85.05;98246.97;226680;1276;22659;-72
2023/07/22 01:28:42;;;;;;;11.60;10.40;;;;;;;15.94;85.38;98260.86;226763;1276;22541;-72
2023/07/22 01:34:29;;;;;;;;;;;;;;;;;;;;;
2023/07/22 01:40:46;;;;;;;10.90;9.80;;;;;;;15.79;85.86;98257.36;226475;1276;24242;-72
2023/07/22 01:47:02;;;;;;;;;;;;;;;;;;;;;
2023/07/22 01:53:57;;;;;;;10.50;9.20;;;;;;;15.81;86.04;98251.45;226428;1276;25259;-72
2023/07/22 01:59:56;;;;;;;11.00;9.50;;;;;;;15.81;85.61;98263.16;226656;1276;25242;-71
2023/07/22 02:06:23;;;;;;;11.90;10.40;;;;;;;15.79;85.85;98266.35;226653;1276;23325;-72
2023/07/22 02:19:40;;;;;;;;;;;;;;;;;;;;;
2023/07/22 02:25:59;;;;;;;7.20;6.40;;;;;;;15.66;86.02;98283.60;226159;1276;22540;-72
2023/07/22 02:32:45;;;;;;;;;;;;;;;;;;;;;
2023/07/22 02:38:40;;;;;;;;;;;;;;;;;;;;;
2023/07/22 02:51:20;;;;;;;20.70;18.10;;;;;;;15.71;86.93;98311.42;226787;1275;22536;-72
2023/07/22 03:04:19;;;;;;;23.50;20.40;;;;;;;15.74;87.30;98345.40;226795;1275;22528;-78
2023/07/22 03:10:20;;;;;;;30.10;23.40;;;;;;;15.77;87.48;98347.98;226713;1275;22568;-72
2023/07/22 03:16:03;;;;;;;27.10;23.50;;;;;;;15.82;87.33;98347.95;226848;1275;22558;-71
2023/07/22 03:21:57;;;;;;;29.50;25.50;;;;;;;15.87;87.44;98347.10;226738;1275;22551;-71
2023/07/22 03:28:14;;;;;;;;;;;;;;;;;;;;;
2023/07/22 03:34:03;;;;;;;25.50;20.60;;;;;;;15.96;87.23;98370.36;226663;1275;22553;-71
2023/07/22 03:40:17;;;;;;;19.70;17.20;;;;;;;15.99;87.29;98388.02;226756;1275;22557;-72
2023/07/22 03:45:47;;;;;;;21.70;16.90;;;;;;;15.99;86.95;98396.51;226665;1261;22570;-71
2023/07/22 03:51:12;;;;;;;18.20;14.10;;;;;;;15.99;87.15;98386.34;226809;1275;22607;-71
2023/07/22 03:57:02;;;;;;;;;;;;;;;;;;;;;
2023/07/22 04:03:09;;;;;;;14.40;12.40;;;;;;;16.01;87.11;98396.83;226896;1274;22536;-71
2023/07/22 04:09:07;;;;;;;;;;;;;;;;;;;;;
2023/07/22 04:15:18;;;;;;;;;;;;;;;;;;;;;
2023/07/22 04:21:55;;;;;;;17.30;9.30;;;;;;;16.18;86.76;98431.16;222816;1275;5338401;-71
2023/07/22 04:28:46;;;;;;;9.90;8.80;;;;;;;16.24;86.49;98432.83;226814;1275;22537;-71
2023/07/22 04:35:22;;;;;;;11.70;8.30;;;;;;;16.28;86.17;98440.23;226788;1275;22545;-71
2023/07/22 04:41:14;;;;;;;11.40;9.50;;;;;;;16.32;86.34;98447.25;226884;1275;22498;-72
2023/07/22 04:48:08;;;;;;;9.30;7.90;;;;;;;16.38;86.22;98453.89;226819;1275;22515;-72
2023/07/22 04:54:33;;;;;;;8.80;7.20;;;;;;;16.48;85.83;98461.26;226177;1275;22579;-71
2023/07/22 05:06:36;;;;;;;;;;;;;;;;;;;;;
2023/07/22 05:13:05;;;;;;;8.60;5.60;;;;;;;16.74;84.58;98483.73;226803;1275;22552;-71
2023/07/22 05:18:44;;;;;;;6.40;5.70;;;;;;;16.80;84.18;98485.06;226987;1275;22568;-72
2023/07/22 05:24:23;;;;;;;;;;;;;;;;;;;;;
2023/07/22 05:30:17;;;;;;;;;;;;;;;;;;;;;
2023/07/22 05:35:45;;;;;;;7.20;6.10;;;;;;;17.23;84.31;98498.11;226888;1275;22585;-72
2023/07/22 05:40:56;;;;;;;8.00;6.20;;;;;;;17.39;83.73;98500.86;226601;1275;22594;-72
2023/07/22 05:45:59;;;;;;;8.40;6.30;;;;;;;17.42;83.40;98507.07;226996;1275;22687;-72
2023/07/22 05:51:49;;;;;;;;;;;;;;;;;;;;;
2023/07/22 05:57:00;;;;;;;10.80;6.70;;;;;;;17.57;82.62;98512.16;227028;1274;22537;-71
2023/07/22 06:03:15;;;;;;;;;;;;;;;;;;;;;
2023/07/22 06:08:20;;;;;;;6.00;5.40;;;;;;;17.99;81.91;98524.73;226774;1275;22558;-72
2023/07/22 06:14:19;;;;;;;5.20;4.70;;;;;;;18.24;80.59;98524.11;226953;1275;25350;-71
2023/07/22 06:19:55;;;;;;;4.90;4.40;;;;;;;18.28;79.50;98525.41;226719;1275;22537;-71
2023/07/22 06:26:00;;;;;;;5.00;4.50;;;;;;;18.23;79.36;98521.94;226783;1257;22542;-71
2023/07/22 06:37:40;;;;;;;;;;;;;;;;;;;;;
2023/07/22 06:43:35;;;;;;;;;;;;;;;;;;;;;
2023/07/22 06:50:01;;;;;;;4.70;4.00;;;;;;;18.33;77.83;98535.78;226432;1254;22525;-71
2023/07/22 06:55:54;;;;;;;3.80;3.50;;;;;;;18.49;77.20;98544.48;226247;1275;22545;-71
2023/07/22 07:01:18;;;;;;;4.70;3.50;;;;;;;18.61;76.65;98549.43;226431;1275;25241;-71
2023/07/22 07:07:12;;;;;;;3.90;3.40;;;;;;;18.65;75.40;98543.20;226302;1276;22491;-71
2023/07/22 07:13:43;;;;;;;3.40;3.10;;;;;;;18.71;74.77;98545.41;226370;1256;22556;-71
2023/07/22 07:20:00;;;;;;;3.30;2.60;;;;;;;18.86;74.00;98552.15;226628;1268;22535;-70
2023/07/22 07:26:12;;;;;;;4.00;2.60;;;;;;;19.02;73.00;98557.89;226208;1265;24255;-72
2023/07/22 07:37:41;;;;;;;3.10;2.80;;;;;;;19.50;72.69;98573.13;226298;1271;22536;-71
2023/07/22 07:44:03;;;;;;;4.00;2.80;;;;;;;19.79;71.99;98575.02;226182;1275;22572;-74
2023/07/22 07:49:51;;;;;;;3.60;2.90;;;;;;;20.13;71.21;98583.77;226338;1257;22524;-72
2023/07/22 07:56:04;;;;;;;4.00;2.60;;;;;;;20.46;70.23;98588.48;226111;1273;22532;-72
2023/07/22 08:02:10;;;;;;;4.40;2.40;;;;;;;20.63;69.36;98585.77;226492;1260;22558;-72
2023/07/22 08:08:43;;;;;;;;;;;;;;;20.79;68.87;98588.13;225961;1269;22525;-72
2023/07/22 08:15:04;;;;;;;2.20;1.90;;;;;;;21.02;67.73;98595.85;226113;1263;22557;-72
2023/07/22 08:21:38;;;;;;;2.80;2.50;;;;;;;21.27;67.49;98595.42;226092;1270;25309;-72
2023/07/22 08:27:51;;;;;;;3.10;2.10;;;;;;;21.51;66.28;98598.81;226212;1275;24962;-72
2023/07/22 08:33:46;;;;;;;2.70;2.50;;;;;;;21.81;65.68;98601.86;226160;1275;22897;-72
2023/07/22 08:39:59;;;;;;;;;;;;;;;;;;;;;
2023/07/22 08:45:57;;;;;;;2.70;2.40;;;;;;;22.45;64.07;98598.75;226017;1276;25987;-72
2023/07/22 08:51:37;;;;;;;3.80;2.30;;;;;;;22.66;63.45;98606.29;226331;1269;22539;-72
2023/07/22 09:02:39;;;;;;;4.90;2.90;;;;;;;22.14;63.47;98610.88;226217;1275;22552;-72
2023/07/22 09:08:27;;;;;;;2.90;2.20;;;;;;;22.23;63.78;98613.59;225941;1252;22698;-72
2023/07/22 09:13:36;;;;;;;3.20;2.80;;;;;;;22.43;63.08;98615.98;226021;1252;22663;-72
2023/07/22 09:19:04;;;;;;;3.60;2.50;;;;;;;22.66;62.21;98623.24;226222;1264;22580;-72
2023/07/22 09:24:29;;;;;;;2.80;2.40;;;;;;;22.85;61.37;98622.45;226361;1275;24235;-70
2023/07/22 09:29:50;;;;;;;4.30;2.50;;;;;;;23.13;60.72;98623.91;226206;1268;22534;-69
2023/07/22 09:35:51;;;;;;;2.80;2.60;;;;;;;23.35;60.33;98627.57;226406;1255;22520;-70
2023/07/22 09:40:54;;;;;;;4.40;2.60;;;;;;;23.41;60.26;98634.19;226207;1272;25333;-71
2023/07/22 09:46:32;;;;;;;2.30;2.00;;;;;;;23.30;59.76;98635.47;226362;1275;22627;-73
2023/07/22 09:51:59;;;;;;;1.90;1.80;;;;;;;23.53;58.38;98635.57;226177;1275;22583;-73
2023/07/22 09:57:22;;;;;;;2.00;1.90;;;;;;;23.99;57.73;98634.45;226353;1271;25364;-71
2023/07/22 10:03:01;;;;;;;;;;;;;;;;;;;;;
2023/07/22 10:34:54;;;;;;;2.50;2.30;;;;;;;24.15;53.82;98644.40;219495;1298;545007;-72
2023/07/22 10:40:30;;;;;;;3.30;2.30;;;;;;;24.21;53.78;98636.54;224723;1281;24219;-72
2023/07/22 10:45:39;;;;;;;2.40;2.20;;;;;;;24.38;52.69;98633.52;224357;1263;387541;-72
2023/07/22 10:50:51;;;;;;;2.50;2.20;;;;;;;24.60;52.73;98625.34;224883;1285;25338;-72
2023/07/22 10:56:06;;;;;;;2.80;2.60;;;;;;;24.79;51.66;98631.17;225718;1276;23390;-72
2023/07/22 11:01:26;;;;;;;2.60;2.40;;;;;;;24.85;51.23;98636.37;225668;1257;23095;-71
2023/07/22 11:06:32;;;;;;;2.90;2.70;;;;;;;25.03;51.06;98632.89;225728;1275;22564;-71
2023/07/22 11:12:15;;;;;;;3.20;2.90;;;;;;;25.02;50.80;98636.02;225868;1278;22533;-71
2023/07/22 11:17:29;;;;;;;3.00;2.80;;;;;;;24.82;51.23;98638.63;225991;1278;22546;-72
2023/07/22 11:22:52;;;;;;;3.40;2.90;;;;;;;24.69;51.34;98648.18;226407;1270;22607;-72
2023/07/22 11:27:57;;;;;;;2.80;2.60;;;;;;;24.58;51.33;98651.63;226396;1275;22539;-71
2023/07/22 11:33:00;;;;;;;2.90;2.70;;;;;;;24.65;51.64;98658.11;226235;1278;22552;-72
2023/07/22 11:38:11;;;;;;;4.50;2.80;;;;;;;24.67;51.10;98654.14;226364;1279;22541;-71
2023/07/22 11:43:17;;;;;;;3.20;2.90;;;;;;;24.62;51.76;98649.28;226239;1276;22554;-72
2023/07/22 11:48:22;;;;;;;3.10;2.80;;;;;;;24.60;51.27;98645.36;226316;1276;22538;-72
2023/07/22 11:53:27;;;;;;;4.80;3.10;;;;;;;24.47;51.09;98642.59;226342;1276;25919;-72
2023/07/22 11:58:40;;;;;;;3.50;3.00;;;;;;;24.45;51.33;98638.98;226288;1279;22540;-72
2023/07/22 12:04:09;;;;;;;3.60;2.70;;;;;;;24.27;50.90;98642.06;226254;1276;22999;-71
2023/07/22 12:09:23;;;;;;;3.50;2.90;;;;;;;24.10;51.77;98643.02;226347;1276;22530;-72
2023/07/22 12:14:42;;;;;;;3.00;2.80;;;;;;;24.16;52.09;98636.52;226262;1276;22547;-72
2023/07/22 12:20:12;;;;;;;3.70;3.10;;;;;;;24.58;52.41;98624.55;226429;1278;22551;-71
2023/07/22 12:25:45;;;;;;;;;;;;;;;;;;;;;
2023/07/22 12:30:57;;;;;;;3.20;2.90;;;;;;;25.25;51.04;98621.67;226458;1278;22906;-72
2023/07/22 12:36:25;;;;;;;3.20;2.90;;;;;;;25.07;50.51;98620.84;226403;1278;24221;-72
2023/07/22 12:42:02;;;;;;;3.40;3.10;;;;;;;24.87;50.71;98620.20;226405;1273;22528;-71
2023/07/22 12:47:12;;;;;;;3.50;3.10;;;;;;;24.55;50.76;98623.88;226451;1278;22582;-72
2023/07/22 12:52:38;;;;;;;3.30;3.10;;;;;;;24.27;50.66;98626.77;226313;1275;22524;-71
2023/07/22 12:58:14;;;;;;;4.00;3.30;;;;;;;24.03;50.92;98625.99;226298;1269;22532;-71
2023/07/22 13:03:37;;;;;;;3.80;3.40;;;;;;;23.97;51.79;98624.68;226464;1262;24198;-71
2023/07/22 13:09:12;;;;;;;3.10;2.90;;;;;;;24.18;51.62;98620.19;226419;1274;22544;-71
2023/07/22 13:14:31;;;;;;;4.30;3.20;;;;;;;24.51;51.26;98612.61;226466;1276;22536;-71
2023/07/22 13:19:36;;;;;;;2.90;2.70;;;;;;;24.95;50.59;98605.75;226404;1278;22533;-72
2023/07/22 13:24:54;;;;;;;3.20;2.90;;;;;;;25.07;49.57;98598.18;226307;1278;22550;-71
2023/07/22 13:29:57;;;;;;;3.20;2.90;;;;;;;25.03;49.48;98597.20;226329;1276;22540;-71
2023/07/22 13:34:59;;;;;;;3.00;2.80;;;;;;;24.89;49.13;98599.46;226395;1276;22681;-71
2023/07/22 13:40:21;;;;;;;2.90;2.60;;;;;;;24.79;48.74;98597.19;226455;1278;22544;-72
2023/07/22 13:45:35;;;;;;;2.90;2.40;;;;;;;24.77;48.78;98594.68;226370;1273;22533;-72
2023/07/22 13:51:11;;;;;;;4.50;4.10;;;;;;;25.02;48.86;98577.73;226354;1278;24278;-71
2023/07/22 13:56:18;;;;;;;3.20;2.50;;;;;;;25.51;48.51;98568.18;226334;1275;22576;-71
2023/07/22 14:01:25;;;;;;;2.90;2.60;;;;;;;25.61;46.91;98570.12;226459;1273;25847;-70
2023/07/22 14:06:36;;;;;;;3.20;2.90;;;;;;;25.57;46.01;98562.90;226214;1277;22540;-71
2023/07/22 14:11:53;;;;;;;3.20;2.80;;;;;;;25.69;45.43;98566.73;226268;1278;22547;-71
2023/07/22 14:17:07;;;;;;;3.10;2.80;;;;;;;25.79;45.32;98566.65;226338;1276;22539;-71
2023/07/22 14:22:12;;;;;;;3.20;2.90;;;;;;;25.68;44.82;98567.94;226322;1275;24221;-71
2023/07/22 14:32:42;;;;;;;3.30;2.50;;;;;;;25.43;44.68;98559.08;226294;1256;24220;-71
2023/07/22 14:37:48;;;;;;;3.00;2.80;;;;;;;25.56;44.36;98552.85;226440;1277;22551;-71
2023/07/22 14:43:14;;;;;;;3.10;2.80;;;;;;;25.65;43.58;98549.68;226455;1276;22539;-71
2023/07/22 14:48:17;;;;;;;3.40;3.10;;;;;;;25.74;43.62;98552.53;226477;1278;22647;-71
2023/07/22 14:53:42;;;;;;;3.00;2.70;;;;;;;25.67;43.53;98553.66;226372;1278;22640;-72
2023/07/22 14:59:17;;;;;;;3.10;2.90;;;;;;;25.68;43.47;98554.78;226396;1257;22568;-71
2023/07/22 15:04:48;;;;;;;4.60;2.60;;;;;;;25.66;43.27;98553.50;226393;1275;22533;-72
2023/07/22 15:10:38;;;;;;;4.50;2.90;;;;;;;25.58;43.15;98552.84;226467;1278;22544;-71
2023/07/22 15:15:59;;;;;;;2.80;2.60;;;;;;;25.42;43.27;98552.70;226333;1278;22537;-71
2023/07/22 15:21:04;;;;;;;3.80;2.90;;;;;;;25.43;43.40;98551.02;226261;1278;25446;-71
2023/07/22 15:26:09;;;;;;;4.20;2.70;;;;;;;25.49;43.44;98553.98;226425;1272;22552;-71
2023/07/22 15:31:12;;;;;;;2.60;2.40;;;;;;;25.47;42.78;98556.54;226169;1278;22537;-71
2023/07/22 15:36:14;;;;;;;3.40;2.30;;;;;;;25.26;42.81;98560.92;226365;1276;22528;-70
2023/07/22 15:41:37;;;;;;;4.20;2.80;;;;;;;25.07;43.30;98553.63;226203;1278;22691;-71
2023/07/22 15:46:40;;;;;;;2.90;2.70;;;;;;;25.03;44.49;98559.77;226333;1275;22524;-71
2023/07/22 15:51:55;;;;;;;;;;;;;;;;;;;;;
2023/07/22 16:02:43;;;;;;;3.50;2.70;;;;;;;24.85;45.89;98570.98;226463;1276;22564;-71
2023/07/22 16:07:51;;;;;;;3.00;2.60;;;;;;;24.83;46.30;98571.52;226201;1276;22541;-70
2023/07/22 16:12:56;;;;;;;4.40;2.60;;;;;;;24.79;46.11;98570.70;226817;1274;22537;-71
2023/07/22 16:18:19;;;;;;;3.30;3.00;;;;;;;24.69;46.26;98575.88;226842;1275;22518;-72
2023/07/22 16:23:57;;;;;;;2.60;2.50;;;;;;;24.63;46.25;98573.94;226862;1275;24846;-71
2023/07/22 16:29:30;;;;;;;3.60;3.00;;;;;;;24.49;46.42;98579.24;226674;1275;22538;-72
2023/07/22 16:34:56;;;;;;;2.90;2.70;;;;;;;24.18;46.63;98579.91;227032;1275;22537;-71
2023/07/22 16:40:10;;;;;;;3.10;2.80;;;;;;;23.95;46.99;98578.92;227025;1273;22543;-71
2023/07/22 16:45:15;;;;;;;2.90;2.70;;;;;;;23.79;47.27;98580.80;226992;1275;22537;-71
2023/07/22 16:50:23;;;;;;;3.10;2.80;;;;;;;23.65;47.40;98580.77;226779;1275;24176;-71
2023/07/22 16:55:40;;;;;;;3.10;2.90;;;;;;;23.54;47.43;98584.81;226957;1275;22536;-71
2023/07/22 17:00:45;;;;;;;3.40;2.90;;;;;;;23.54;47.53;98591.34;227031;1273;22521;-71
2023/07/22 17:05:56;;;;;;;3.80;2.80;;;;;;;23.65;47.50;98589.77;226897;1272;22537;-71
2023/07/22 17:11:07;;;;;;;4.60;3.10;;;;;;;23.72;47.58;98592.83;227040;1272;24908;-71
2023/07/22 17:16:13;;;;;;;3.90;2.90;;;;;;;23.76;47.71;98593.06;226827;1275;22521;-72
2023/07/22 17:21:18;;;;;;;3.50;2.90;;;;;;;23.78;47.64;98587.98;226879;1272;22953;-71
2023/07/22 17:26:24;;;;;;;3.20;2.90;;;;;;;23.92;47.80;98599.88;226937;1272;22528;-71
2023/07/22 17:31:26;;;;;;;3.30;3.00;;;;;;;24.72;48.28;98595.52;227018;1271;22530;-71
2023/07/22 17:36:32;;;;;;;3.60;3.30;;;;;;;25.08;47.20;98595.74;226651;1275;22595;-71
2023/07/22 17:41:41;;;;;;;3.10;2.80;;;;;;;25.42;47.07;98601.39;226989;1272;23628;-71
2023/07/22 17:46:49;;;;;;;3.50;2.90;;;;;;;25.16;46.31;98601.43;226814;1275;22554;-71
2023/07/22 17:51:54;;;;;;;3.90;3.00;;;;;;;24.57;46.62;98608.23;226863;1275;22548;-71
2023/07/22 17:56:57;;;;;;;3.10;2.80;;;;;;;24.03;47.23;98614.06;226883;1273;22536;-71
2023/07/22 18:02:00;;;;;;;3.80;3.40;;;;;;;23.54;47.89;98610.74;226803;1272;23795;-70
2023/07/22 18:07:12;;;;;;;3.40;3.10;;;;;;;23.12;48.47;98614.91;226854;1275;22530;-71
2023/07/22 18:12:25;;;;;;;3.60;2.80;;;;;;;22.70;49.17;98610.39;226867;1262;23333;-71
2023/07/22 18:18:10;;;;;;;3.40;3.10;;;;;;;22.25;49.79;98607.66;226674;1275;22545;-71
2023/07/22 18:23:15;;;;;;;2.70;2.40;;;;;;;21.91;50.50;98607.15;227016;1272;22545;-70
2023/07/22 18:28:28;;;;;;;3.00;2.70;;;;;;;21.61;51.02;98609.48;226895;1272;25932;-71
2023/07/22 18:34:08;;;;;;;3.40;3.10;;;;;;;21.30;51.55;98608.72;226811;1275;23948;-70
2023/07/22 18:39:24;;;;;;;3.50;3.20;;;;;;;21.00;52.17;98614.59;226862;1275;22537;-70
2023/07/22 18:44:56;;;;;;;6.30;3.70;;;;;;;20.75;52.59;98618.11;227019;1275;22536;-71
2023/07/22 18:49:58;;;;;;;8.00;5.20;;;;;;;20.47;53.21;98619.19;226880;1273;25306;-71
2023/07/22 18:55:00;;;;;;;3.40;2.90;;;;;;;20.23;53.58;98623.95;226826;1275;22535;-71
2023/07/22 19:00:04;;;;;;;5.90;3.80;;;;;;;20.00;53.68;98641.48;226822;1273;22537;-70
2023/07/22 19:05:07;;;;;;;4.10;3.70;;;;;;;19.80;54.01;98647.32;227002;1275;22623;-70
2023/07/22 19:10:10;;;;;;;29.80;21.60;;;;;;;19.60;54.43;98648.95;226853;1273;22534;-71
2023/07/22 19:15:12;;;;;;;5.70;4.50;;;;;;;19.42;54.95;98656.45;227042;1273;22529;-71
2023/07/22 19:20:24;;;;;;;4.30;3.30;;;;;;;19.24;55.14;98666.54;226872;1275;22558;-71
2023/07/22 19:25:38;;;;;;;5.20;3.10;;;;;;;19.04;55.72;98661.39;226865;1275;24588;-71
2023/07/22 19:30:41;;;;;;;4.60;3.50;;;;;;;18.86;56.11;98666.94;226916;1273;22544;-71
2023/07/22 19:36:14;;;;;;;3.90;3.50;;;;;;;18.67;56.70;98672.84;227005;1275;22577;-71
2023/07/22 19:41:16;;;;;;;4.50;3.80;;;;;;;18.49;57.34;98682.26;227014;1272;22557;-71
2023/07/22 19:46:19;;;;;;;4.90;3.70;;;;;;;18.32;57.90;98682.56;227007;1275;22557;-71
2023/07/22 19:51:35;;;;;;;;;;;;;;;;;;;;;
2023/07/22 19:56:47;;;;;;;4.60;3.90;;;;;;;18.00;59.19;98690.63;226933;1273;22532;-70
2023/07/22 20:01:52;;;;;;;12.40;8.30;;;;;;;17.84;60.16;98701.05;226702;1275;22545;-70
2023/07/22 20:06:55;;;;;;;11.70;9.60;;;;;;;17.63;61.31;98705.51;226841;1274;24647;-71
2023/07/22 20:12:29;;;;;;;46.30;41.70;;;;;;;17.41;62.46;98703.36;226881;1274;23409;-71
2023/07/22 20:18:18;;;;;;;15.80;13.30;;;;;;;17.23;63.03;98706.23;226914;1275;22534;-71
2023/07/22 20:23:35;;;;;;;11.40;9.60;;;;;;;17.11;63.21;98709.05;227038;1275;22547;-71
2023/07/22 20:28:47;;;;;;;9.30;7.20;;;;;;;17.02;63.93;98708.20;226802;1275;24878;-71
2023/07/22 20:33:52;;;;;;;9.00;7.60;;;;;;;16.90;64.22;98710.11;227025;1272;22656;-71
2023/07/22 20:39:00;;;;;;;10.50;7.80;;;;;;;16.78;64.56;98716.27;226943;1275;22533;-71
2023/07/22 20:44:07;;;;;;;13.20;8.70;;;;;;;16.71;65.24;98714.90;226937;1270;25965;-71
2023/07/22 20:49:11;;;;;;;10.60;8.90;;;;;;;16.64;65.55;98714.02;226811;1275;22548;-71
2023/07/22 20:54:33;;;;;;;10.10;8.80;;;;;;;16.54;66.00;98714.09;227047;1273;22532;-71
2023/07/22 20:59:56;;;;;;;11.10;9.10;;;;;;;16.46;66.49;98719.02;226722;1275;22482;-72
2023/07/22 21:05:15;;;;;;;12.60;8.90;;;;;;;16.39;66.79;98718.38;226963;1275;22544;-70
2023/07/22 21:10:28;;;;;;;15.60;11.80;;;;;;;16.31;67.13;98726.98;226884;1275;22525;-71
2023/07/22 21:15:41;;;;;;;13.00;10.70;;;;;;;16.22;67.77;98729.14;226914;1275;24214;-71
2023/07/22 21:20:43;;;;;;;10.70;9.60;;;;;;;16.16;68.09;98734.61;226838;1270;22529;-71
2023/07/22 21:25:56;;;;;;;10.40;9.30;;;;;;;16.09;68.81;98737.93;226999;1274;22539;-71
2023/07/22 21:37:08;;;;;;;10.90;9.70;;;;;;;15.88;69.68;98739.86;226976;1275;22535;-71
2023/07/22 21:42:16;;;;;;;11.40;9.30;;;;;;;15.81;69.95;98741.67;226880;1275;22645;-72
2023/07/22 21:47:39;;;;;;;13.20;9.50;;;;;;;15.74;70.30;98744.62;226864;1275;22551;-71
2023/07/22 21:52:44;;;;;;;12.80;11.10;;;;;;;15.66;70.32;98751.71;226896;1273;22533;-71
2023/07/22 21:58:08;;;;;;;12.40;10.60;;;;;;;15.58;70.45;98751.54;226864;1275;22672;-72
2023/07/22 22:03:33;;;;;;;10.60;9.60;;;;;;;15.48;71.09;98749.52;226920;1275;22555;-71
2023/07/22 22:08:46;;;;;;;11.60;10.30;;;;;;;15.42;71.35;98752.42;226838;1275;22557;-70
2023/07/22 22:13:50;;;;;;;13.60;10.60;;;;;;;15.37;71.56;98751.56;226767;1270;24247;-71
2023/07/22 22:19:48;;;;;;;11.50;9.80;;;;;;;15.33;71.56;98751.43;226738;1275;22541;-71
2023/07/22 22:25:17;;;;;;;11.20;10.00;;;;;;;15.29;71.65;98753.64;226880;1275;22525;-71
2023/07/22 22:30:24;;;;;;;11.40;10.20;;;;;;;15.23;71.68;98752.02;226861;1270;22546;-71
2023/07/22 22:48:52;;;;;;;13.50;10.80;;;;;;;15.07;72.31;98755.72;226782;1275;168669;-71
2023/07/22 22:54:18;;;;;;;13.30;11.60;;;;;;;15.02;72.54;98759.44;226919;1275;22534;-71
2023/07/22 22:59:27;;;;;;;14.00;11.30;;;;;;;14.96;72.65;98764.41;227036;1275;22547;-71
2023/07/22 23:04:45;;;;;;;12.50;10.40;;;;;;;14.88;72.50;98758.52;227007;1275;22558;-71
2023/07/22 23:09:51;;;;;;;11.50;10.40;;;;;;;14.82;72.74;98753.17;226807;1275;22553;-72
2023/07/22 23:15:06;;;;;;;11.10;9.90;;;;;;;14.75;72.66;98748.14;227037;1275;22532;-71
2023/07/22 23:21:06;;;;;;;;;;;;;;;;;;;;;
2023/07/22 23:26:29;;;;;;;10.80;9.60;;;;;;;14.61;73.11;98749.06;226905;1269;22521;-71
2023/07/22 23:32:36;;;;;;;10.20;9.20;;;;;;;14.56;73.07;98746.27;227051;1275;22540;-71
2023/07/22 23:37:57;;;;;;;11.60;9.30;;;;;;;14.53;73.37;98737.14;227006;1267;25338;-71
2023/07/22 23:43:28;;;;;;;11.40;10.00;;;;;;;14.50;73.56;98737.19;226904;1275;22544;-71
2023/07/22 23:49:06;;;;;;;13.10;9.80;;;;;;;14.47;73.51;98736.34;226856;1275;22568;-71
2023/07/22 23:54:20;;;;;;;9.70;8.80;;;;;;;14.43;73.48;98734.52;226782;1275;22560;-73
2023/07/22 23:59:59;;;;;;;10.60;9.50;;;;;;;14.37;73.24;98729.54;226850;1270;22584;-71
